Cleveland, Ohio
Traffic Map
Current Weather Conditions
Cleveland, Ohio
Broken Clouds
Broken Clouds
12°
Feels Like: 12°
Wind Chill: 12° Ceiling: 4000
Heat Index: 12° Visibility: 10mi
Dew Point: Wind: 14mph
Humidity: 72% Direction: 230° (SW)
Pressure: 29.91in Gusts: 0mph
Raw Report DataKBKL 250953Z AUTO 23012KT 10SM BKN040 12/07 A2991 RMK AO2 SLP128 T01220072
Traffic Incident Summary
Active as of:
Severity:
Category:
InformationThere was an issue retrieving the traffic information for this location. Please try a different location or try again shortly.
Advertisements
Track Severe Weather on mobile